createdAt,value
2018-12-02T00:02:13.391Z,25.27
2018-12-02T00:04:47.604Z,24.47
2018-12-02T00:07:26.720Z,26.25
2018-12-02T00:10:04.629Z,25.88
2018-12-02T00:12:42.204Z,23.83
2018-12-02T00:15:25.825Z,30.60
2018-12-02T00:18:08.463Z,26.93
2018-12-02T00:20:47.808Z,30.23
2018-12-02T00:23:27.019Z,23.65
2018-12-02T00:26:05.907Z,25.30
2018-12-02T00:28:46.992Z,20.97
2018-12-02T00:31:26.065Z,24.80
2018-12-02T00:34:05.709Z,24.70
2018-12-02T00:36:44.629Z,23.95
2018-12-02T00:39:23.869Z,21.33
2018-12-02T00:42:04.630Z,21.05
2018-12-02T00:44:43.725Z,22.13
2018-12-02T00:47:23.441Z,22.65
2018-12-02T00:50:03.632Z,22.87
2018-12-02T00:52:42.857Z,21.20
2018-12-02T00:55:26.340Z,19.98
2018-12-02T00:58:05.407Z,20.97
2018-12-02T01:00:42.520Z,22.90
2018-12-02T01:03:23.562Z,24.55
2018-12-02T01:06:04.432Z,27.02
2018-12-02T01:08:44.629Z,23.30
2018-12-02T01:11:23.461Z,22.98
2018-12-02T01:14:02.954Z,19.87
2018-12-02T01:16:41.674Z,18.07
2018-12-02T01:19:22.134Z,21.97
2018-12-02T01:22:02.826Z,23.62
2018-12-02T01:24:41.192Z,23.57
2018-12-02T01:27:21.791Z,22.95
2018-12-02T01:30:01.051Z,20.90
2018-12-02T01:32:36.739Z,23.60
2018-12-02T01:35:14.631Z,23.85
2018-12-02T01:37:50.749Z,22.73
2018-12-02T01:40:30.789Z,21.95
2018-12-02T01:43:10.557Z,23.20
2018-12-02T01:45:51.175Z,23.10
2018-12-02T01:48:33.088Z,24.85
2018-12-02T01:51:14.628Z,23.35
2018-12-02T01:53:54.597Z,23.73
2018-12-02T01:56:33.441Z,23.40
2018-12-02T01:59:12.929Z,22.25
2018-12-02T02:01:52.169Z,25.48
2018-12-02T02:04:34.630Z,21.65
2018-12-02T02:07:14.430Z,22.32
2018-12-02T02:09:53.922Z,21.65
2018-12-02T02:12:34.410Z,21.05
2018-12-02T02:15:14.001Z,22.73
2018-12-02T02:17:54.627Z,24.87
2018-12-02T02:20:33.487Z,21.75
2018-12-02T02:23:13.228Z,24.60
2018-12-02T02:25:52.167Z,23.55
2018-12-02T02:28:32.009Z,22.73
2018-12-02T02:31:11.527Z,24.87
2018-12-02T02:33:51.141Z,21.87
2018-12-02T02:36:30.758Z,21.55
2018-12-02T02:39:10.425Z,21.15
2018-12-02T02:41:54.627Z,20.40
2018-12-02T02:44:34.458Z,20.40
2018-12-02T02:47:14.124Z,19.75
2018-12-02T02:49:54.613Z,20.45
2018-12-02T02:52:33.655Z,19.32
2018-12-02T02:55:13.125Z,19.67
2018-12-02T02:57:52.614Z,18.15
2018-12-02T03:00:31.654Z,19.32
2018-12-02T03:03:11.969Z,17.70
2018-12-02T03:05:51.391Z,17.17
2018-12-02T03:08:30.401Z,20.15
2018-12-02T03:11:10.842Z,19.23
2018-12-02T03:13:49.033Z,15.00
2018-12-02T03:16:28.904Z,18.05
2018-12-02T03:19:09.293Z,16.17
2018-12-02T03:21:47.671Z,16.73
2018-12-02T03:24:27.256Z,17.30
2018-12-02T03:27:05.265Z,13.35
2018-12-02T03:29:43.984Z,16.00
2018-12-02T03:32:18.323Z,15.13
2018-12-02T03:34:57.639Z,16.62
2018-12-02T03:37:34.605Z,16.23
2018-12-02T03:40:17.096Z,15.15
2018-12-02T03:42:57.290Z,15.03
2018-12-02T03:45:36.818Z,14.40
2018-12-02T03:48:16.524Z,15.75
2018-12-02T03:50:55.566Z,15.80
2018-12-02T03:53:35.703Z,14.25
2018-12-02T03:56:15.762Z,15.80
2018-12-02T03:58:54.627Z,13.78
2018-12-02T04:01:33.930Z,12.68
2018-12-02T04:04:14.628Z,15.40
2018-12-02T04:06:54.625Z,13.03
2018-12-02T04:09:34.626Z,12.90
2018-12-02T04:12:12.967Z,13.50
2018-12-02T04:14:51.915Z,12.15
2018-12-02T04:17:30.199Z,14.00
2018-12-02T04:20:06.744Z,13.13
2018-12-02T04:22:44.632Z,12.50
2018-12-02T04:25:24.627Z,15.15
2018-12-02T04:28:04.627Z,13.38
2018-12-02T04:30:43.161Z,12.18
2018-12-02T04:33:17.823Z,12.13
2018-12-02T04:35:52.317Z,12.37
2018-12-02T04:38:32.084Z,13.10
2018-12-02T04:41:11.627Z,11.70
2018-12-02T04:43:50.714Z,12.75
2018-12-02T04:46:29.708Z,13.93
2018-12-02T04:49:02.158Z,12.93
2018-12-02T04:51:33.028Z,12.80
2018-12-02T04:54:02.110Z,12.13
2018-12-02T04:56:34.332Z,12.37
2018-12-02T04:59:01.701Z,11.85
2018-12-02T05:01:30.098Z,12.85
2018-12-02T05:03:57.864Z,11.50
2018-12-02T05:06:25.793Z,12.95
2018-12-02T05:08:54.012Z,11.65
2018-12-02T05:11:22.737Z,12.00
2018-12-02T05:13:54.628Z,11.75
2018-12-02T05:16:22.473Z,12.45
2018-12-02T05:18:51.764Z,10.98
2018-12-02T05:21:20.197Z,11.83
2018-12-02T05:23:49.510Z,11.97
2018-12-02T05:26:17.618Z,12.13
2018-12-02T05:28:45.865Z,12.35
2018-12-02T05:31:15.822Z,12.40
2018-12-02T05:33:45.375Z,11.30
2018-12-02T05:36:14.762Z,13.83
2018-12-02T05:38:52.234Z,13.08
2018-12-02T05:41:21.776Z,13.45
2018-12-02T05:43:52.045Z,13.45
2018-12-02T05:46:20.119Z,12.93
2018-12-02T05:48:52.982Z,12.98
2018-12-02T05:51:22.828Z,13.38
2018-12-02T05:53:51.794Z,11.73
2018-12-02T05:56:21.333Z,12.80
2018-12-02T05:58:53.192Z,13.03
2018-12-02T06:01:22.192Z,12.70
2018-12-02T06:03:51.844Z,10.50
2018-12-02T06:06:21.552Z,13.55
2018-12-02T06:08:50.505Z,14.05
2018-12-02T06:11:21.443Z,13.35
2018-12-02T06:13:52.854Z,13.40
2018-12-02T06:16:34.409Z,15.28
2018-12-02T06:19:11.922Z,15.95
2018-12-02T06:21:46.795Z,17.60
2018-12-02T06:24:17.717Z,14.55
2018-12-02T06:26:52.072Z,16.65
2018-12-02T06:29:21.956Z,17.10
2018-12-02T06:31:57.692Z,16.97
2018-12-02T06:34:29.395Z,15.32
2018-12-02T06:37:01.141Z,14.40
2018-12-02T06:39:31.622Z,15.43
2018-12-02T06:42:01.780Z,16.15
2018-12-02T06:44:32.669Z,15.55
2018-12-02T06:47:01.095Z,15.43
2018-12-02T06:49:30.752Z,15.85
2018-12-02T06:52:00.889Z,15.03
2018-12-02T06:54:35.914Z,16.73
2018-12-02T06:57:10.773Z,15.68
2018-12-02T06:59:47.192Z,15.90
2018-12-02T07:02:32.384Z,15.72
2018-12-02T07:05:11.898Z,16.60
2018-12-02T07:07:51.219Z,15.40
2018-12-02T07:10:30.456Z,15.65
2018-12-02T07:13:10.998Z,16.15
2018-12-02T07:15:49.655Z,14.75
2018-12-02T07:18:36.981Z,15.08
2018-12-02T07:21:18.996Z,15.20
2018-12-02T07:24:02.268Z,15.50
2018-12-02T07:26:46.953Z,18.40
2018-12-02T07:29:28.097Z,14.63
2018-12-02T07:34:46.229Z,20.00
2018-12-02T08:24:04.529Z,15.68
2018-12-02T08:26:44.471Z,15.38
2018-12-02T08:29:23.912Z,16.20
2018-12-02T08:32:04.638Z,16.93
2018-12-02T08:34:43.464Z,13.88
2018-12-02T08:37:22.984Z,18.77
2018-12-02T08:40:01.672Z,14.73
2018-12-02T08:42:41.839Z,11.48
2018-12-02T08:45:21.985Z,12.43
2018-12-02T08:48:01.574Z,12.35
2018-12-02T08:50:41.890Z,11.75
2018-12-02T08:53:21.983Z,12.33
2018-12-02T08:56:00.336Z,15.90
2018-12-02T08:58:41.485Z,11.30
2018-12-02T09:01:20.579Z,12.93
2018-12-02T09:04:01.119Z,12.33
2018-12-02T09:06:39.588Z,12.37
2018-12-02T09:09:21.175Z,14.98
2018-12-02T09:11:59.919Z,17.37
2018-12-02T09:14:38.810Z,11.80
2018-12-02T09:17:19.303Z,11.20
2018-12-02T09:19:59.667Z,20.62
2018-12-02T09:22:39.183Z,19.37
2018-12-02T09:25:17.653Z,35.60
2018-12-02T09:27:58.564Z,7.87
2018-12-02T09:30:38.609Z,59.53
2018-12-02T09:33:20.180Z,7.60
2018-12-02T09:35:59.492Z,8.03
2018-12-02T09:38:37.805Z,11.10
2018-12-02T09:41:16.249Z,7.72
2018-12-02T09:43:55.964Z,9.23
2018-12-02T09:46:33.881Z,8.33
2018-12-02T09:49:13.501Z,9.60
2018-12-02T09:51:53.164Z,7.55
2018-12-02T09:54:34.638Z,7.00
2018-12-02T09:57:05.836Z,6.60
2018-12-02T09:59:45.864Z,6.05
2018-12-02T10:02:24.636Z,6.70
2018-12-02T10:05:04.636Z,6.58
2018-12-02T10:07:44.514Z,6.50
2018-12-02T10:10:22.458Z,8.10
2018-12-02T10:13:06.797Z,6.65
2018-12-02T10:15:44.638Z,7.25
2018-12-02T10:18:24.637Z,6.67
2018-12-02T10:21:04.128Z,7.95
2018-12-02T10:23:44.186Z,6.85
2018-12-02T10:26:23.941Z,5.85
2018-12-02T10:29:04.637Z,7.55
2018-12-02T10:31:43.413Z,8.60
2018-12-02T10:34:24.636Z,6.80
2018-12-02T10:37:03.045Z,6.65
2018-12-02T10:39:43.761Z,7.30
2018-12-02T10:42:22.154Z,7.22
2018-12-02T10:45:02.692Z,7.28
2018-12-02T10:47:41.033Z,12.95
2018-12-02T10:50:22.688Z,6.87
2018-12-02T10:53:01.296Z,10.38
2018-12-02T10:55:45.783Z,10.85
2018-12-02T10:58:30.251Z,7.05
2018-12-02T11:01:14.342Z,7.60
2018-12-02T11:03:53.137Z,15.85
2018-12-02T11:06:37.596Z,8.48
2018-12-02T11:09:21.389Z,7.70
2018-12-02T11:12:00.657Z,7.17
2018-12-02T11:14:39.618Z,8.93
2018-12-02T11:17:12.989Z,6.40
2018-12-02T11:19:53.059Z,7.45
2018-12-02T11:22:33.042Z,7.83
2018-12-02T11:25:12.014Z,8.05
2018-12-02T11:27:50.626Z,9.38
2018-12-02T11:30:29.491Z,8.43
2018-12-02T11:33:08.649Z,8.18
2018-12-02T11:35:48.608Z,8.40
2018-12-02T11:38:27.843Z,7.70
2018-12-02T11:41:01.987Z,7.45
2018-12-02T11:43:43.278Z,7.05
2018-12-02T11:46:15.761Z,17.82
2018-12-02T11:48:47.792Z,7.72
2018-12-02T11:51:15.988Z,12.10
2018-12-02T11:53:44.306Z,11.85
2018-12-02T11:56:12.531Z,12.37
2018-12-02T11:58:41.385Z,18.87
2018-12-02T12:01:11.375Z,9.23
2018-12-02T12:03:40.137Z,10.08
2018-12-02T12:06:13.077Z,10.68
2018-12-02T12:08:45.297Z,9.93
2018-12-02T12:11:25.484Z,8.95
2018-12-02T12:14:04.636Z,7.42
2018-12-02T12:16:44.624Z,14.50
2018-12-02T12:19:22.514Z,7.58
2018-12-02T12:22:03.076Z,19.35
2018-12-02T12:24:42.617Z,8.10
2018-12-02T12:27:22.107Z,9.78
2018-12-02T12:30:00.274Z,10.90
2018-12-02T12:32:41.428Z,11.68
2018-12-02T12:35:22.085Z,12.00
2018-12-02T12:38:02.948Z,7.05
2018-12-02T12:40:42.188Z,7.17
2018-12-02T12:43:35.537Z,7.72
2018-12-02T12:46:13.372Z,7.08
2018-12-02T12:48:53.121Z,8.20
2018-12-02T12:51:32.656Z,8.08
2018-12-02T12:54:13.597Z,8.95
2018-12-02T12:56:54.089Z,7.75
2018-12-02T12:59:34.561Z,9.30
2018-12-02T13:02:12.521Z,8.23
2018-12-02T13:04:52.062Z,8.23
2018-12-02T13:07:30.779Z,12.68
2018-12-02T13:10:10.844Z,8.75
2018-12-02T13:12:49.791Z,8.40
2018-12-02T13:15:30.805Z,11.73
2018-12-02T13:18:09.795Z,8.70
2018-12-02T13:20:46.890Z,9.60
2018-12-02T13:23:26.004Z,9.25
2018-12-02T13:26:04.630Z,10.15
2018-12-02T13:28:42.739Z,7.80
2018-12-02T13:31:22.154Z,10.55
2018-12-02T13:34:02.826Z,8.65
2018-12-02T13:36:43.910Z,13.08
2018-12-02T13:39:23.404Z,9.78
2018-12-02T13:42:02.141Z,13.20
2018-12-02T13:44:41.161Z,8.10
2018-12-02T13:47:20.777Z,11.33
2018-12-02T13:50:00.245Z,9.15
2018-12-02T13:52:40.527Z,8.35
2018-12-02T13:55:21.999Z,18.48
2018-12-02T13:58:01.039Z,12.50
2018-12-02T14:00:41.081Z,12.43
2018-12-02T14:03:21.601Z,8.38
2018-12-02T14:06:01.446Z,7.90
2018-12-02T14:08:40.381Z,8.73
2018-12-02T14:11:20.823Z,8.20
2018-12-02T14:13:59.316Z,8.60
2018-12-02T14:16:45.530Z,7.40
2018-12-02T14:19:24.637Z,7.80
2018-12-02T14:22:04.516Z,6.83
2018-12-02T14:24:47.707Z,7.65
2018-12-02T14:27:28.224Z,6.80
2018-12-02T14:30:07.387Z,7.28
2018-12-02T14:32:46.854Z,7.85
2018-12-02T14:35:24.637Z,8.20
2018-12-02T14:38:04.337Z,7.95
2018-12-02T14:40:42.827Z,8.18
2018-12-02T14:43:24.637Z,9.05
2018-12-02T14:46:04.639Z,10.15
2018-12-02T14:48:44.084Z,7.30
2018-12-02T14:51:27.100Z,7.28
2018-12-02T14:54:08.913Z,9.40
2018-12-02T14:56:47.174Z,11.00
2018-12-02T14:59:25.817Z,7.62
2018-12-02T15:02:03.770Z,11.00
2018-12-02T15:04:43.588Z,8.85
2018-12-02T15:07:22.074Z,9.45
2018-12-02T15:10:01.109Z,10.03
2018-12-02T15:12:42.226Z,9.38
2018-12-02T15:15:22.341Z,21.93
2018-12-02T15:17:59.224Z,6.53
2018-12-02T15:20:38.498Z,7.00
2018-12-02T15:23:17.444Z,4.12
2018-12-02T15:25:58.286Z,3.70
2018-12-02T15:28:36.584Z,3.75
2018-12-02T15:31:14.643Z,3.33
2018-12-02T15:33:54.584Z,3.50
2018-12-02T15:36:33.876Z,3.10
2018-12-02T15:39:13.426Z,3.20
2018-12-02T15:41:51.534Z,3.12
2018-12-02T15:44:33.180Z,3.30
2018-12-02T15:47:13.317Z,3.30
2018-12-02T15:49:52.806Z,3.20
2018-12-02T15:52:32.775Z,3.12
2018-12-02T15:55:13.755Z,3.40
2018-12-02T15:57:52.935Z,2.85
2018-12-02T16:00:32.722Z,3.52
2018-12-02T16:03:12.165Z,3.47
2018-12-02T16:05:53.456Z,3.83
2018-12-02T16:08:34.371Z,7.72
2018-12-02T16:11:13.911Z,3.70
2018-12-02T16:13:57.330Z,3.70
2018-12-02T16:16:36.012Z,4.67
2018-12-02T16:19:15.685Z,4.05
2018-12-02T16:21:52.422Z,26.68
2018-12-02T16:24:33.208Z,4.05
2018-12-02T16:27:08.312Z,4.58
2018-12-02T16:29:42.203Z,11.65
2018-12-02T16:32:19.351Z,5.25
2018-12-02T16:35:00.692Z,3.90
2018-12-02T16:37:40.677Z,3.70
2018-12-02T16:40:19.446Z,5.70
2018-12-02T16:42:58.860Z,4.35
2018-12-02T16:45:38.255Z,5.67
2018-12-02T16:48:17.795Z,6.78
2018-12-02T16:50:57.507Z,3.92
2018-12-02T16:53:38.575Z,3.62
2018-12-02T16:56:20.892Z,3.45
2018-12-02T16:59:03.560Z,3.02
2018-12-02T17:01:43.860Z,3.00
2018-12-02T17:04:23.518Z,6.28
2018-12-02T17:07:04.638Z,3.70
2018-12-02T17:09:44.225Z,6.03
2018-12-02T17:12:23.868Z,3.62
2018-12-02T17:15:03.781Z,3.85
2018-12-02T17:17:41.047Z,4.25
2018-12-02T17:20:21.438Z,3.37
2018-12-02T17:23:01.209Z,4.78
2018-12-02T17:25:39.845Z,5.30
2018-12-02T17:28:19.417Z,3.62
2018-12-02T17:31:02.559Z,6.12
2018-12-02T17:33:42.095Z,4.12
2018-12-02T17:36:12.047Z,3.70
2018-12-02T17:38:46.847Z,5.35
2018-12-02T17:41:26.946Z,5.22
2018-12-02T17:43:54.978Z,5.67
2018-12-02T17:46:34.405Z,4.50
2018-12-02T17:49:13.950Z,5.45
2018-12-02T17:51:54.634Z,7.00
2018-12-02T17:54:34.106Z,6.60
2018-12-02T17:57:14.084Z,8.90
2018-12-02T17:59:54.187Z,5.97
2018-12-02T18:02:36.328Z,5.83
2018-12-02T18:05:15.421Z,6.90
2018-12-02T18:07:54.636Z,5.75
2018-12-02T18:10:32.652Z,5.50
2018-12-02T18:13:12.297Z,4.60
2018-12-02T18:15:52.537Z,3.98
2018-12-02T18:18:33.127Z,4.50
2018-12-02T18:21:11.868Z,5.62
2018-12-02T18:23:52.488Z,4.62
2018-12-02T18:26:31.976Z,4.40
2018-12-02T18:29:11.270Z,5.35
2018-12-02T18:31:52.585Z,4.70
2018-12-02T18:34:31.654Z,5.80
2018-12-02T18:37:12.192Z,5.60
2018-12-02T18:39:49.715Z,4.90
2018-12-02T18:42:29.279Z,5.03
2018-12-02T18:45:09.345Z,4.90
2018-12-02T18:47:49.312Z,5.35
2018-12-02T18:50:29.699Z,4.50
2018-12-02T18:53:14.635Z,3.92
2018-12-02T18:55:54.634Z,4.62
2018-12-02T18:58:33.398Z,4.17
2018-12-02T19:01:12.940Z,6.05
2018-12-02T19:03:54.534Z,4.78
2018-12-02T19:06:33.874Z,4.33
2018-12-02T19:09:13.993Z,4.60
2018-12-02T19:11:54.633Z,4.62
2018-12-02T19:14:32.647Z,8.80
2018-12-02T19:17:12.138Z,4.35
2018-12-02T19:19:50.555Z,4.92
2018-12-02T19:22:31.997Z,5.70
2018-12-02T19:25:11.613Z,3.85
2018-12-02T19:27:52.428Z,4.62
2018-12-02T19:30:33.108Z,3.90
2018-12-02T19:33:11.311Z,4.35
2018-12-02T19:35:50.803Z,3.40
2018-12-02T19:38:31.796Z,4.30
2018-12-02T19:41:11.386Z,4.10
2018-12-02T19:43:50.981Z,4.15
2018-12-02T19:46:31.819Z,4.70
2018-12-02T19:49:10.713Z,5.55
2018-12-02T19:51:50.304Z,4.10
2018-12-02T19:54:30.618Z,3.22
2018-12-02T19:57:09.634Z,3.95
2018-12-02T19:59:50.980Z,3.35
2018-12-02T20:02:31.148Z,4.40
2018-12-02T20:05:09.912Z,3.40
2018-12-02T20:07:49.352Z,3.52
2018-12-02T20:10:31.244Z,4.80
2018-12-02T20:13:13.541Z,5.50
2018-12-02T20:15:56.150Z,3.35
2018-12-02T20:18:36.917Z,3.60
2018-12-02T20:21:16.306Z,3.58
2018-12-02T20:23:59.648Z,4.72
2018-12-02T20:26:38.440Z,4.30
2018-12-02T20:29:18.458Z,4.10
2018-12-02T20:31:57.616Z,4.50
2018-12-02T20:34:38.093Z,3.70
2018-12-02T20:37:17.012Z,3.00
2018-12-02T20:39:56.585Z,3.70
2018-12-02T20:42:34.632Z,5.05
2018-12-02T20:45:14.606Z,3.80
2018-12-02T20:47:54.867Z,2.95
2018-12-02T20:50:35.590Z,3.00
2018-12-02T20:53:16.111Z,3.92
2018-12-02T20:55:54.326Z,2.65
2018-12-02T20:58:34.164Z,3.10
2018-12-02T21:01:14.633Z,2.40
2018-12-02T21:03:53.369Z,3.37
2018-12-02T21:06:32.887Z,2.90
2018-12-02T21:09:11.705Z,3.65
2018-12-02T21:11:52.194Z,3.75
2018-12-02T21:14:31.062Z,4.90
2018-12-02T21:17:11.052Z,4.90
2018-12-02T21:19:49.497Z,3.52
2018-12-02T21:22:29.269Z,3.12
2018-12-02T21:25:09.301Z,3.70
2018-12-02T21:27:49.096Z,12.13
2018-12-02T21:30:28.233Z,4.50
2018-12-02T21:33:07.775Z,3.22
2018-12-02T21:35:47.618Z,3.75
2018-12-02T21:38:28.714Z,5.58
2018-12-02T21:41:08.426Z,3.47
2018-12-02T21:43:47.068Z,3.45
2018-12-02T21:46:26.237Z,2.80
2018-12-02T21:49:06.200Z,3.37
2018-12-02T21:51:47.168Z,3.10
2018-12-02T21:54:29.285Z,2.83
2018-12-02T21:57:08.752Z,3.27
2018-12-02T21:59:49.142Z,3.02
2018-12-02T22:02:29.209Z,3.67
2018-12-02T22:05:09.276Z,3.20
2018-12-02T22:07:47.539Z,5.53
2018-12-02T22:10:27.957Z,3.22
2018-12-02T22:13:06.997Z,3.33
2018-12-02T22:15:46.072Z,3.37
2018-12-02T22:18:24.580Z,3.05
2018-12-02T22:21:03.097Z,3.15
2018-12-02T22:23:42.590Z,3.50
2018-12-02T22:26:22.980Z,3.45
2018-12-02T22:29:02.998Z,2.98
2018-12-02T22:31:42.743Z,3.15
2018-12-02T22:34:21.903Z,3.00
2018-12-02T22:37:01.253Z,2.42
2018-12-02T22:39:41.287Z,3.47
2018-12-02T22:42:19.527Z,3.83
2018-12-02T22:44:58.921Z,3.72
2018-12-02T22:47:37.739Z,4.15
2018-12-02T22:50:18.879Z,3.45
2018-12-02T22:52:59.471Z,3.02
2018-12-02T22:55:40.366Z,3.85
2018-12-02T22:58:19.378Z,3.58
2018-12-02T23:01:02.478Z,3.83
2018-12-02T23:03:42.858Z,2.80
2018-12-02T23:06:24.226Z,2.92
2018-12-02T23:09:04.492Z,3.35
2018-12-02T23:11:44.633Z,3.60
2018-12-02T23:14:24.327Z,3.90
2018-12-02T23:17:04.636Z,2.80
2018-12-02T23:19:41.851Z,3.75
2018-12-02T23:22:21.400Z,3.30
2018-12-02T23:25:02.692Z,2.80
2018-12-02T23:27:41.934Z,4.22
2018-12-02T23:30:22.051Z,3.37
2018-12-02T23:33:01.190Z,3.30
2018-12-02T23:35:40.836Z,3.70
2018-12-02T23:38:19.848Z,3.40
2018-12-02T23:41:00.889Z,3.52
2018-12-02T23:43:39.707Z,3.55
2018-12-02T23:46:20.247Z,3.70
2018-12-02T23:48:59.066Z,4.17
2018-12-02T23:51:39.159Z,5.15
2018-12-02T23:54:19.501Z,3.40
2018-12-02T23:56:58.287Z,3.52
2018-12-02T23:59:36.197Z,3.60
